Terminal Aerodrome Forecast
Issued by NWS Sterling, VA

Home | Current Version | Previous Version | Text Only | Print | Product List | Glossary On
Versions: 1 2 3 4 5 6 7 8 9 10 11 12 13 14 15 16 17
000
FTUS41 KLWX 231100 RRA
TAFMRB
TAF
KMRB 231141Z 2312/2412 12007KT P6SM BKN008 OVC015
     FM231400 12006KT 6SM -SHRA BKN015 OVC050
     FM231800 11005KT P6SM -SHRA BKN025 OVC050
     FM232000 08005KT P6SM BKN050
     FM240300 10005KT P6SM BKN030
     FM240600 VRB03KT 3SM BR OVC020=

USA.gov is the U.S. government's official web portal to all federal, state and local government web resources and services.